Time;durP1;ratioP1;P1;durP2;ratioP2;P2;SDS_P1;SDS_P2;PMS_P1;PMS_P2;Temp;Humidity;BMP_temperature;BMP_pressure;BME280_temperature;BME280_humidity;BME280_pressure;Samples;Min_cycle;Max_cycle;Signal;HPM_P1;HPM_P2
2023/05/17 00:02:05;;;;;;;0.10;0.00;;;17.80;40.00;;;;;;6036457;23;20749;-81
2023/05/17 00:04:32;;;;;;;0.40;0.00;;;17.80;39.60;;;;;;6034885;23;20764;-83
2023/05/17 00:06:59;;;;;;;0.60;0.00;;;17.80;39.60;;;;;;6036621;23;20384;-82
2023/05/17 00:09:26;;;;;;;0.10;0.00;;;17.80;39.90;;;;;;6035242;23;20389;-82
2023/05/17 00:11:53;;;;;;;0.20;0.00;;;17.80;39.10;;;;;;6035443;23;20437;-82
2023/05/17 00:14:20;;;;;;;1.10;0.00;;;17.90;39.10;;;;;;6034564;23;20724;-81
2023/05/17 00:16:47;;;;;;;0.00;0.00;;;17.90;39.10;;;;;;6036021;23;20410;-82
2023/05/17 00:19:14;;;;;;;0.20;0.00;;;17.90;39.30;;;;;;6033703;23;20385;-81
2023/05/17 00:21:41;;;;;;;0.70;0.00;;;17.90;39.70;;;;;;6034965;23;20377;-82
2023/05/17 00:24:08;;;;;;;0.20;0.00;;;17.90;39.30;;;;;;6035162;23;20393;-81
2023/05/17 00:26:35;;;;;;;0.00;0.00;;;17.90;38.60;;;;;;6034624;23;20741;-82
2023/05/17 00:29:02;;;;;;;0.10;0.00;;;17.90;38.80;;;;;;6036002;23;20384;-81
2023/05/17 00:31:29;;;;;;;0.80;0.30;;;17.90;39.00;;;;;;6033842;23;20715;-83
2023/05/17 00:33:56;;;;;;;0.00;0.00;;;18.00;38.50;;;;;;6035525;23;20432;-83
2023/05/17 00:36:22;;;;;;;0.30;0.00;;;18.00;38.10;;;;;;6035176;23;20403;-81
2023/05/17 00:38:49;;;;;;;0.10;0.00;;;18.00;38.10;;;;;;6035371;23;20524;-82
2023/05/17 00:41:17;;;;;;;0.10;0.00;;;18.00;38.50;;;;;;6035267;23;20429;-81
2023/05/17 00:43:44;;;;;;;1.10;0.00;;;18.10;37.90;;;;;;6033849;23;20380;-81
2023/05/17 00:46:11;;;;;;;0.10;0.00;;;18.10;37.30;;;;;;6035079;23;20453;-81
2023/05/17 00:48:38;;;;;;;0.50;0.00;;;18.10;38.60;;;;;;6034071;23;20437;-81
2023/05/17 00:51:05;;;;;;;0.00;0.00;;;18.10;37.50;;;;;;6035438;23;20525;-82
2023/05/17 00:53:35;;;;;;;0.20;0.00;;;18.00;37.70;;;;;;6033750;23;20436;-81
2023/05/17 00:56:02;;;;;;;0.10;0.00;;;18.10;37.90;;;;;;6034750;23;20443;-82
2023/05/17 00:58:29;;;;;;;0.10;0.00;;;18.00;38.10;;;;;;6033730;23;20395;-81
2023/05/17 01:00:58;;;;;;;0.00;0.00;;;18.00;38.80;;;;;;6036609;23;20437;-82
2023/05/17 01:03:25;;;;;;;0.03;0.00;;;18.00;39.10;;;;;;6061566;23;20831;-80
2023/05/17 01:05:52;;;;;;;0.00;0.00;;;17.90;38.90;;;;;;6094348;23;20388;-81
2023/05/17 01:08:19;;;;;;;0.10;0.00;;;17.90;38.90;;;;;;6092922;23;20392;-80
2023/05/17 01:10:53;;;;;;;0.00;0.00;;;17.90;39.10;;;;;;6094049;23;20381;-83
2023/05/17 01:13:45;;;;;;;0.00;0.00;;;17.90;39.20;;;;;;6094470;23;20731;-81
2023/05/17 01:16:26;;;;;;;0.00;0.00;;;17.90;38.90;;;;;;6093309;23;20385;-80
2023/05/17 01:19:16;;;;;;;0.00;0.00;;;17.80;39.10;;;;;;6094220;23;20373;-81
2023/05/17 01:22:16;;;;;;;0.50;0.00;;;17.80;38.60;;;;;;6094785;23;20744;-80
2023/05/17 01:25:05;;;;;;;0.60;0.00;;;17.80;39.00;;;;;;6094857;23;20378;-80
2023/05/17 01:27:34;;;;;;;0.00;0.00;;;17.80;39.30;;;;;;6092580;23;20391;-80
2023/05/17 01:30:03;;;;;;;0.00;0.00;;;17.80;39.40;;;;;;6094004;23;20496;-80
2023/05/17 01:32:32;;;;;;;0.10;0.00;;;17.80;39.10;;;;;;6093757;23;20384;-81
2023/05/17 01:34:59;;;;;;;0.10;0.00;;;17.80;38.70;;;;;;6094520;23;20763;-80
2023/05/17 01:37:26;;;;;;;0.00;0.00;;;17.80;38.60;;;;;;6091676;23;20381;-80
2023/05/17 01:39:53;;;;;;;0.80;0.10;;;17.80;39.30;;;;;;6094061;23;20373;-81
2023/05/17 01:42:21;;;;;;;0.52;0.10;;;17.80;42.80;;;;;;6093087;23;20377;-81
2023/05/17 01:45:17;;;;;;;0.50;0.10;;;17.70;43.70;;;;;;6093997;23;20373;-80
2023/05/17 01:48:05;;;;;;;0.65;0.28;;;17.70;45.30;;;;;;6093050;23;20763;-79
2023/05/17 01:50:35;;;;;;;0.60;0.20;;;17.60;47.90;;;;;;6093087;23;20385;-80
2023/05/17 01:53:16;;;;;;;0.50;0.10;;;17.60;48.00;;;;;;6095558;23;20381;-80
2023/05/17 01:55:56;;;;;;;1.75;0.10;;;17.50;45.30;;;;;;6092432;23;20424;-80
2023/05/17 01:58:25;;;;;;;0.40;0.32;;;17.50;49.50;;;;;;6092856;23;20374;-81
2023/05/17 02:00:54;;;;;;;0.60;0.40;;;17.50;53.40;;;;;;6093722;23;20388;-81
2023/05/17 02:03:22;;;;;;;0.38;0.20;;;17.50;54.70;;;;;;6072490;23;20391;-81
2023/05/17 02:05:49;;;;;;;2.38;0.60;;;17.40;52.50;;;;;;6065545;23;20395;-82
2023/05/17 02:08:16;;;;;;;0.35;0.30;;;17.40;53.10;;;;;;6065209;23;20390;-82
2023/05/17 02:10:43;;;;;;;0.40;0.35;;;17.30;56.70;;;;;;6063879;23;20379;-82
2023/05/17 02:13:11;;;;;;;0.50;0.45;;;17.20;58.40;;;;;;6065221;23;20769;-82
2023/05/17 02:15:38;;;;;;;0.60;0.40;;;17.20;59.50;;;;;;6065386;23;20461;-82
2023/05/17 02:18:05;;;;;;;0.57;0.40;;;17.10;61.20;;;;;;6065169;23;20383;-82
2023/05/17 02:20:32;;;;;;;0.50;0.32;;;17.00;61.60;;;;;;6065473;23;20414;-82
2023/05/17 02:22:59;;;;;;;0.73;0.40;;;17.00;61.60;;;;;;6065364;23;20738;-81
2023/05/17 02:25:26;;;;;;;1.88;0.30;;;16.90;62.40;;;;;;6064413;23;20383;-83
2023/05/17 02:27:53;;;;;;;1.45;0.43;;;16.90;62.40;;;;;;6065444;23;20438;-82
2023/05/17 02:30:21;;;;;;;0.50;0.30;;;16.80;60.20;;;;;;6064718;23;20390;-83
2023/05/17 02:32:48;;;;;;;0.80;0.30;;;16.80;59.90;;;;;;6065820;23;20379;-82
2023/05/17 02:35:15;;;;;;;0.50;0.28;;;16.80;59.40;;;;;;6064765;23;20389;-82
2023/05/17 02:37:42;;;;;;;1.30;0.20;;;16.80;59.40;;;;;;6064230;23;20713;-82
2023/05/17 02:40:10;;;;;;;0.10;0.10;;;16.70;53.40;;;;;;6064284;23;21024;-82
2023/05/17 02:42:37;;;;;;;0.30;0.10;;;16.70;53.50;;;;;;6065604;23;20750;-82
2023/05/17 02:45:04;;;;;;;0.10;0.10;;;16.70;51.70;;;;;;6064485;23;20406;-83
2023/05/17 02:47:31;;;;;;;0.28;0.17;;;16.80;52.80;;;;;;6063942;23;20398;-82
2023/05/17 02:49:58;;;;;;;0.30;0.20;;;16.80;54.30;;;;;;6064963;23;20430;-82
2023/05/17 02:52:25;;;;;;;0.40;0.20;;;16.70;55.50;;;;;;6063494;23;20435;-82
2023/05/17 02:54:52;;;;;;;0.30;0.17;;;16.70;55.90;;;;;;6064600;23;20386;-82
2023/05/17 02:57:19;;;;;;;0.40;0.20;;;16.60;56.30;;;;;;6064176;23;20447;-82
2023/05/17 02:59:46;;;;;;;0.22;0.15;;;16.60;56.60;;;;;;6064377;23;20411;-82
2023/05/17 03:02:13;;;;;;;1.00;0.20;;;16.60;57.40;;;;;;6067824;23;20717;-82
2023/05/17 03:04:40;;;;;;;0.30;0.20;;;16.50;58.90;;;;;;6092856;23;20904;-82
2023/05/17 03:07:07;;;;;;;0.30;0.20;;;16.50;58.70;;;;;;6095087;23;20453;-81
2023/05/17 03:09:34;;;;;;;0.17;0.13;;;16.40;60.20;;;;;;6093577;23;20385;-82
2023/05/17 03:12:01;;;;;;;0.40;0.20;;;16.30;60.00;;;;;;6093592;23;20381;-82
2023/05/17 03:14:28;;;;;;;0.20;0.10;;;16.30;60.70;;;;;;6092392;23;20377;-82
2023/05/17 03:16:55;;;;;;;0.38;0.10;;;16.20;61.10;;;;;;6093500;23;20374;-81
2023/05/17 03:19:23;;;;;;;0.03;0.03;;;16.20;61.20;;;;;;6092849;23;20378;-82
2023/05/17 03:21:50;;;;;;;0.45;0.20;;;16.10;61.80;;;;;;6092519;23;20388;-82
2023/05/17 03:24:17;;;;;;;0.10;0.10;;;16.00;60.00;;;;;;6093222;23;20425;-82
2023/05/17 03:26:44;;;;;;;0.90;0.20;;;16.00;53.80;;;;;;6092309;23;20689;-81
2023/05/17 03:29:11;;;;;;;0.90;0.10;;;16.00;52.10;;;;;;6092741;23;20377;-82
2023/05/17 03:31:38;;;;;;;0.10;0.10;;;16.00;55.00;;;;;;6092397;23;20808;-82
2023/05/17 03:34:05;;;;;;;0.20;0.00;;;16.00;55.10;;;;;;6093280;23;20469;-81
2023/05/17 03:36:33;;;;;;;1.00;0.10;;;15.90;52.50;;;;;;6092155;23;20389;-82
2023/05/17 03:39:00;;;;;;;0.22;0.10;;;16.00;54.70;;;;;;6093469;23;20696;-82
2023/05/17 03:41:27;;;;;;;0.10;0.10;;;15.90;56.60;;;;;;6094294;23;20385;-82
2023/05/17 03:43:54;;;;;;;0.50;0.10;;;15.90;57.20;;;;;;6092289;23;20843;-82
2023/05/17 03:46:21;;;;;;;0.20;0.00;;;15.90;55.90;;;;;;6093100;23;20374;-82
2023/05/17 03:48:48;;;;;;;0.10;0.00;;;15.80;53.20;;;;;;6092013;23;20381;-82
2023/05/17 03:51:15;;;;;;;1.10;0.50;;;15.80;51.40;;;;;;6092787;23;20392;-81
2023/05/17 03:53:42;;;;;;;0.03;0.00;;;15.80;50.60;;;;;;6116324;23;20401;-81
2023/05/17 03:56:10;;;;;;;0.10;0.00;;;15.90;51.00;;;;;;6093144;23;20377;-81
2023/05/17 03:58:37;;;;;;;0.80;0.10;;;15.90;51.50;;;;;;6091791;23;20502;-81
2023/05/17 04:01:04;;;;;;;0.10;0.08;;;15.90;49.90;;;;;;6093028;23;20369;-82
2023/05/17 04:03:31;;;;;;;0.10;0.10;;;16.00;50.10;;;;;;6091412;23;20388;-81
2023/05/17 04:06:05;;;;;;;0.93;0.10;;;16.00;51.10;;;;;;6092692;23;20374;-82
2023/05/17 04:08:33;;;;;;;0.60;0.10;;;16.00;53.90;;;;;;6091676;23;20716;-82
2023/05/17 04:11:08;;;;;;;0.40;0.10;;;16.00;54.40;;;;;;6092659;23;20386;-82
2023/05/17 04:13:36;;;;;;;0.10;0.00;;;16.00;53.00;;;;;;6091744;23;20405;-82
2023/05/17 04:16:10;;;;;;;0.00;0.00;;;15.90;52.20;;;;;;6092677;23;20460;-82
2023/05/17 04:18:38;;;;;;;0.17;0.10;;;15.90;52.10;;;;;;6092194;23;20378;-81
2023/05/17 04:21:05;;;;;;;0.40;0.10;;;15.90;54.00;;;;;;6092763;23;20396;-81
2023/05/17 04:23:33;;;;;;;0.25;0.20;;;15.90;56.30;;;;;;6091393;23;20377;-82
2023/05/17 04:26:00;;;;;;;0.73;0.10;;;15.80;54.10;;;;;;6093217;23;20381;-82
2023/05/17 04:28:27;;;;;;;0.30;0.00;;;15.80;52.20;;;;;;6092573;23;20388;-82
2023/05/17 04:30:55;;;;;;;0.35;0.10;;;15.90;49.80;;;;;;6092156;23;20724;-82
2023/05/17 04:33:23;;;;;;;0.30;0.00;;;15.90;48.00;;;;;;6092521;23;20378;-82
2023/05/17 04:35:53;;;;;;;0.20;0.10;;;15.90;49.00;;;;;;6091934;23;20385;-82
2023/05/17 04:38:20;;;;;;;0.73;0.15;;;16.00;51.90;;;;;;6092117;23;20716;-82
2023/05/17 04:40:47;;;;;;;0.17;0.10;;;16.00;53.20;;;;;;6091571;23;20385;-82
2023/05/17 04:43:14;;;;;;;0.20;0.00;;;16.00;54.10;;;;;;6092472;23;20712;-82
2023/05/17 04:45:41;;;;;;;0.00;0.00;;;16.00;52.60;;;;;;6091666;23;20688;-82
2023/05/17 04:48:08;;;;;;;0.10;0.00;;;16.00;52.50;;;;;;6092306;23;20389;-82
2023/05/17 04:50:35;;;;;;;0.90;0.10;;;16.00;52.60;;;;;;6091556;23;20381;-82
2023/05/17 04:53:02;;;;;;;0.20;0.20;;;16.00;52.10;;;;;;6092612;23;20901;-82
2023/05/17 04:55:29;;;;;;;0.60;0.10;;;16.00;51.00;;;;;;6092771;23;20382;-82
2023/05/17 04:57:56;;;;;;;0.80;0.13;;;16.00;49.00;;;;;;6092755;23;20385;-83
2023/05/17 05:00:23;;;;;;;0.40;0.20;;;16.10;52.40;;;;;;6092628;23;20858;-82
2023/05/17 05:02:50;;;;;;;0.10;0.00;;;16.10;54.30;;;;;;6091233;23;20393;-82
2023/05/17 05:05:19;;;;;;;0.10;0.10;;;16.10;51.10;;;;;;6092467;23;20377;-82
2023/05/17 05:07:46;;;;;;;1.00;0.10;;;16.10;52.10;;;;;;6090471;23;20950;-82
2023/05/17 05:10:13;;;;;;;0.25;0.10;;;16.10;51.50;;;;;;6091999;23;20370;-82
2023/05/17 05:12:39;;;;;;;0.50;0.08;;;16.20;50.60;;;;;;6091532;23;20377;-82
2023/05/17 05:15:07;;;;;;;0.40;0.00;;;16.20;48.00;;;;;;6092494;23;20376;-82
2023/05/17 05:17:34;;;;;;;0.50;0.00;;;16.30;46.10;;;;;;6092565;23;20752;-82
2023/05/17 05:20:01;;;;;;;0.00;0.00;;;16.40;44.80;;;;;;6091372;23;20382;-82
2023/05/17 05:22:28;;;;;;;0.27;0.00;;;16.40;45.70;;;;;;6092191;23;20419;-82
2023/05/17 05:24:55;;;;;;;0.00;0.00;;;16.40;45.60;;;;;;6091394;23;20408;-82
2023/05/17 05:27:22;;;;;;;1.00;0.10;;;16.40;45.80;;;;;;6092322;23;20378;-82
2023/05/17 05:29:49;;;;;;;0.00;0.00;;;16.50;44.80;;;;;;6091178;23;20378;-81
2023/05/17 05:32:16;;;;;;;0.43;0.00;;;16.50;45.40;;;;;;6092535;23;20399;-81
2023/05/17 05:34:42;;;;;;;0.10;0.00;;;16.60;44.50;;;;;;6091633;23;20377;-81
2023/05/17 05:37:09;;;;;;;1.00;0.00;;;16.60;43.30;;;;;;6092115;23;20377;-81
2023/05/17 05:39:36;;;;;;;0.60;0.10;;;16.60;43.90;;;;;;6092429;23;20711;-82
2023/05/17 05:42:04;;;;;;;1.73;0.30;;;16.60;43.90;;;;;;6091739;23;20436;-82
2023/05/17 05:44:31;;;;;;;0.10;0.00;;;16.70;44.30;;;;;;6092227;23;20448;-82
2023/05/17 05:46:58;;;;;;;0.70;0.00;;;16.70;43.80;;;;;;6091445;23;20382;-82
2023/05/17 05:49:24;;;;;;;0.10;0.00;;;16.70;45.00;;;;;;6092445;23;20385;-82
2023/05/17 05:51:51;;;;;;;0.10;0.00;;;16.70;43.90;;;;;;6092193;23;20381;-82
2023/05/17 05:54:18;;;;;;;0.70;0.10;;;16.70;43.70;;;;;;6094254;23;20384;-82
2023/05/17 05:56:45;;;;;;;0.10;0.00;;;16.70;43.60;;;;;;6093180;23;20395;-82
2023/05/17 05:59:12;;;;;;;0.40;0.00;;;16.80;43.40;;;;;;6094074;23;20369;-82
2023/05/17 06:01:40;;;;;;;0.60;0.10;;;16.80;42.80;;;;;;6093674;23;20606;-82
2023/05/17 06:04:07;;;;;;;0.15;0.08;;;16.90;42.70;;;;;;6092454;23;21231;-82
2023/05/17 06:06:34;;;;;;;1.00;0.00;;;16.90;43.20;;;;;;6094354;23;20685;-82
2023/05/17 06:09:02;;;;;;;0.20;0.10;;;16.90;43.00;;;;;;6092964;23;20908;-83
2023/05/17 06:11:29;;;;;;;0.68;0.10;;;16.90;43.60;;;;;;6093743;23;20712;-83
2023/05/17 06:13:56;;;;;;;1.20;0.10;;;16.90;42.80;;;;;;6092947;23;20433;-82
2023/05/17 06:16:23;;;;;;;0.15;0.00;;;17.00;42.60;;;;;;6093932;23;20713;-82
2023/05/17 06:18:50;;;;;;;0.88;0.00;;;17.00;44.40;;;;;;6092641;23;20381;-82
2023/05/17 06:21:17;;;;;;;3.40;0.30;;;17.00;42.90;;;;;;6093976;23;20400;-83
2023/05/17 06:23:44;;;;;;;0.43;0.00;;;17.00;43.20;;;;;;6089193;23;20381;-83
2023/05/17 06:26:11;;;;;;;1.10;0.47;;;17.00;43.80;;;;;;6093532;23;20373;-81
2023/05/17 06:28:38;;;;;;;0.30;0.10;;;17.00;43.70;;;;;;6093280;23;20385;-83
2023/05/17 06:31:05;;;;;;;1.20;0.38;;;17.00;43.80;;;;;;6092869;23;20404;-82
2023/05/17 06:33:32;;;;;;;0.20;0.00;;;17.00;42.90;;;;;;6093512;23;20381;-82
2023/05/17 06:35:59;;;;;;;0.38;0.05;;;17.00;44.20;;;;;;6092994;23;20409;-82
2023/05/17 06:38:26;;;;;;;0.25;0.10;;;17.00;44.20;;;;;;6093453;23;20774;-83
2023/05/17 06:40:54;;;;;;;1.20;0.10;;;17.00;44.60;;;;;;6094729;23;20382;-82
2023/05/17 06:43:21;;;;;;;0.70;0.10;;;17.00;44.10;;;;;;6093497;23;20429;-81
2023/05/17 06:45:48;;;;;;;0.40;0.20;;;17.00;46.30;;;;;;6092557;23;20425;-82
2023/05/17 06:48:15;;;;;;;0.60;0.10;;;17.00;44.90;;;;;;6093394;23;20393;-83
2023/05/17 06:50:42;;;;;;;0.90;0.10;;;17.00;44.50;;;;;;6090939;23;20378;-82
2023/05/17 06:53:10;;;;;;;0.20;0.10;;;17.00;44.60;;;;;;6092320;23;20752;-82
2023/05/17 06:55:37;;;;;;;0.60;0.10;;;17.00;44.40;;;;;;6093291;23;20373;-82
2023/05/17 06:58:04;;;;;;;0.32;0.10;;;17.00;44.60;;;;;;6092242;23;20374;-83
2023/05/17 07:00:31;;;;;;;0.38;0.10;;;17.10;44.30;;;;;;6092388;23;20377;-84
2023/05/17 07:02:59;;;;;;;0.10;0.10;;;17.10;43.50;;;;;;6092110;23;20381;-82
2023/05/17 07:05:27;;;;;;;0.20;0.10;;;17.10;44.40;;;;;;6092495;23;20862;-83
2023/05/17 07:07:56;;;;;;;1.20;0.10;;;17.10;44.30;;;;;;6092312;23;20381;-82
2023/05/17 07:10:23;;;;;;;1.20;0.10;;;17.10;44.40;;;;;;6093583;23;20378;-82
2023/05/17 07:12:52;;;;;;;0.28;0.10;;;17.20;45.40;;;;;;6092988;23;20432;-81
2023/05/17 07:15:19;;;;;;;1.75;0.30;;;17.20;44.40;;;;;;6093138;23;20421;-82
2023/05/17 07:17:46;;;;;;;1.55;0.20;;;17.20;44.20;;;;;;6092724;23;20389;-81
2023/05/17 07:20:13;;;;;;;1.08;0.20;;;17.40;42.50;;;;;;6092366;23;20382;-82
2023/05/17 07:22:40;;;;;;;0.55;0.10;;;17.30;42.60;;;;;;6094606;23;20460;-83
2023/05/17 07:25:08;;;;;;;0.57;0.17;;;17.50;42.60;;;;;;6092153;23;20703;-82
2023/05/17 07:27:35;;;;;;;0.50;0.10;;;17.50;44.10;;;;;;6093404;23;20375;-82
2023/05/17 07:30:02;;;;;;;0.70;0.10;;;17.60;44.70;;;;;;6092179;23;20392;-82
2023/05/17 07:32:30;;;;;;;0.77;0.10;;;17.70;46.00;;;;;;6093000;23;20697;-83
2023/05/17 07:34:57;;;;;;;0.50;0.10;;;17.70;45.80;;;;;;6092061;23;20378;-83
2023/05/17 07:37:24;;;;;;;0.25;0.22;;;17.80;45.90;;;;;;6093554;23;20444;-82
2023/05/17 07:39:51;;;;;;;0.10;0.10;;;17.80;45.70;;;;;;6092311;23;20381;-83
2023/05/17 07:42:18;;;;;;;0.80;0.10;;;18.00;46.20;;;;;;6094158;23;20392;-83
2023/05/17 07:44:47;;;;;;;0.17;0.10;;;18.00;46.30;;;;;;6093755;23;20382;-83
2023/05/17 07:47:15;;;;;;;0.25;0.10;;;18.10;45.40;;;;;;6091949;23;20401;-82
2023/05/17 07:49:42;;;;;;;0.50;0.10;;;18.20;45.70;;;;;;6093079;23;20381;-83
2023/05/17 07:52:09;;;;;;;0.40;0.10;;;18.30;46.40;;;;;;6092333;23;20373;-83
2023/05/17 07:54:36;;;;;;;0.25;0.20;;;18.40;45.60;;;;;;6093190;23;20378;-83
2023/05/17 07:57:03;;;;;;;0.17;0.10;;;18.50;45.00;;;;;;6092542;23;20389;-83
2023/05/17 07:59:30;;;;;;;0.35;0.10;;;18.60;45.00;;;;;;6092645;23;20984;-83
2023/05/17 08:01:57;;;;;;;0.60;0.10;;;18.60;43.60;;;;;;6091759;23;20374;-82
2023/05/17 08:04:24;;;;;;;0.47;0.17;;;18.70;44.60;;;;;;6093057;23;20377;-83
2023/05/17 08:06:51;;;;;;;0.10;0.10;;;18.80;45.70;;;;;;6092782;23;20413;-83
2023/05/17 08:09:18;;;;;;;0.20;0.10;;;18.90;45.80;;;;;;6092541;23;20374;-83
2023/05/17 08:11:45;;;;;;;0.30;0.10;;;19.00;45.00;;;;;;6092742;23;20385;-83
2023/05/17 08:14:13;;;;;;;0.43;0.30;;;19.10;43.80;;;;;;6091770;23;20751;-83
2023/05/17 08:16:46;;;;;;;1.33;0.30;;;19.20;44.60;;;;;;6092524;23;20855;-83
2023/05/17 08:19:15;;;;;;;0.50;0.30;;;19.30;43.40;;;;;;6092068;23;20373;-82
2023/05/17 08:21:42;;;;;;;0.60;0.30;;;19.50;43.70;;;;;;6093789;23;20832;-82
2023/05/17 08:24:10;;;;;;;0.52;0.30;;;19.60;44.70;;;;;;6092549;23;20384;-83
2023/05/17 08:26:37;;;;;;;0.88;0.28;;;19.70;45.00;;;;;;6092596;23;20441;-83
2023/05/17 08:29:04;;;;;;;0.35;0.13;;;19.80;45.70;;;;;;6091677;23;20464;-82
2023/05/17 08:31:32;;;;;;;0.45;0.20;;;19.90;45.80;;;;;;6092507;23;20376;-82
2023/05/17 08:33:59;;;;;;;0.50;0.10;;;20.10;46.00;;;;;;6091960;23;20377;-82
2023/05/17 08:36:27;;;;;;;1.35;0.20;;;20.20;45.40;;;;;;6092736;23;20390;-83
2023/05/17 08:38:54;;;;;;;0.30;0.10;;;20.30;45.00;;;;;;6093183;23;20464;-83
2023/05/17 08:41:21;;;;;;;0.77;0.10;;;20.30;43.60;;;;;;6091052;23;20374;-82
2023/05/17 08:43:49;;;;;;;1.55;0.25;;;20.40;43.70;;;;;;6092714;23;20377;-83
2023/05/17 08:46:22;;;;;;;0.45;0.10;;;20.40;45.10;;;;;;6091871;23;20413;-83
2023/05/17 08:48:50;;;;;;;0.38;0.20;;;20.60;44.30;;;;;;6092260;23;20464;-83
2023/05/17 08:51:19;;;;;;;0.45;0.10;;;20.80;44.40;;;;;;6091862;23;20462;-83
2023/05/17 08:53:46;;;;;;;0.80;0.20;;;20.90;44.10;;;;;;6093997;23;20685;-83
2023/05/17 08:56:17;;;;;;;1.55;0.10;;;21.10;44.80;;;;;;6091933;23;20401;-83
2023/05/17 08:58:47;;;;;;;0.20;0.10;;;21.10;44.70;;;;;;6092579;23;20382;-82
2023/05/17 09:01:18;;;;;;;0.75;0.10;;;21.20;44.70;;;;;;6091318;23;20390;-83
2023/05/17 09:03:48;;;;;;;0.17;0.10;;;21.30;44.90;;;;;;6089711;23;20382;-82
2023/05/17 09:06:22;;;;;;;0.00;0.00;;;21.30;44.80;;;;;;6092173;23;20396;-83
2023/05/17 09:08:57;;;;;;;0.93;0.13;;;21.20;43.20;;;;;;6092854;23;20397;-82
2023/05/17 09:11:30;;;;;;;0.20;0.10;;;21.00;43.30;;;;;;6091958;23;20441;-83
2023/05/17 09:14:03;;;;;;;1.70;0.10;;;20.90;42.70;;;;;;6068518;23;20456;-84
2023/05/17 09:16:32;;;;;;;0.27;0.07;;;20.80;42.10;;;;;;6092965;23;20381;-84
2023/05/17 09:19:00;;;;;;;0.30;0.10;;;20.70;42.90;;;;;;6092291;23;20548;-83
2023/05/17 09:21:30;;;;;;;0.10;0.03;;;20.70;43.00;;;;;;6092984;23;20453;-83
2023/05/17 09:24:01;;;;;;;0.90;0.10;;;20.60;42.10;;;;;;6092477;23;20482;-83
2023/05/17 09:26:42;;;;;;;0.10;0.10;;;20.50;42.40;;;;;;6093580;23;20388;-83
2023/05/17 09:29:14;;;;;;;0.80;0.35;;;20.30;42.90;;;;;;6094465;23;20389;-83
2023/05/17 09:31:43;;;;;;;1.40;0.10;;;20.10;43.90;;;;;;6093496;23;20445;-82
2023/05/17 09:34:10;;;;;;;0.40;0.10;;;20.00;44.40;;;;;;6094273;23;20836;-83
2023/05/17 09:36:40;;;;;;;0.15;0.10;;;19.90;45.10;;;;;;6093333;23;20374;-82
2023/05/17 09:39:13;;;;;;;0.22;0.15;;;19.80;44.70;;;;;;6094251;23;20452;-83
2023/05/17 09:41:48;;;;;;;0.60;0.10;;;19.80;46.10;;;;;;6093438;23;20401;-82
2023/05/17 09:44:15;;;;;;;0.40;0.10;;;19.80;47.00;;;;;;6093877;23;20385;-82
2023/05/17 09:46:47;;;;;;;0.35;0.17;;;19.80;48.60;;;;;;6093600;23;20428;-83
2023/05/17 09:49:15;;;;;;;1.08;0.22;;;19.80;49.10;;;;;;6094126;23;20465;-83
2023/05/17 09:51:43;;;;;;;0.30;0.10;;;19.80;49.10;;;;;;6093263;23;20377;-83
2023/05/17 09:54:11;;;;;;;0.45;0.20;;;19.80;49.50;;;;;;6094463;23;20377;-83
2023/05/17 09:56:38;;;;;;;0.22;0.10;;;19.70;49.70;;;;;;6093330;23;20428;-82
2023/05/17 09:59:15;;;;;;;0.60;0.20;;;19.60;50.30;;;;;;6094046;23;20449;-83
2023/05/17 10:01:46;;;;;;;0.65;0.30;;;19.50;51.40;;;;;;6092878;23;20428;-83
2023/05/17 10:04:19;;;;;;;0.25;0.20;;;19.40;52.00;;;;;;6093754;23;20717;-82
2023/05/17 10:06:48;;;;;;;0.30;0.30;;;19.20;51.20;;;;;;6117272;23;20383;-83
2023/05/17 10:09:21;;;;;;;0.50;0.20;;;19.00;51.10;;;;;;6094007;23;20381;-82
2023/05/17 10:11:51;;;;;;;0.70;0.20;;;18.90;53.10;;;;;;6093392;23;20827;-83
2023/05/17 10:14:21;;;;;;;0.15;0.13;;;18.70;52.50;;;;;;6094339;23;20412;-83
2023/05/17 10:16:51;;;;;;;0.63;0.20;;;18.50;53.20;;;;;;6093740;23;20700;-82
2023/05/17 10:19:19;;;;;;;0.30;0.15;;;18.50;54.30;;;;;;6093730;23;20460;-83
2023/05/17 10:21:48;;;;;;;0.45;0.20;;;18.30;53.10;;;;;;6092747;23;20405;-82
2023/05/17 10:24:16;;;;;;;0.17;0.17;;;18.20;53.20;;;;;;6093930;23;20688;-83
2023/05/17 10:26:43;;;;;;;0.70;0.20;;;18.10;54.00;;;;;;6092799;23;20390;-81
2023/05/17 10:29:10;;;;;;;0.40;0.20;;;18.00;54.70;;;;;;6093840;23;20390;-83
2023/05/17 10:31:42;;;;;;;0.28;0.20;;;17.90;54.80;;;;;;6092543;23;20402;-82
2023/05/17 10:34:10;;;;;;;0.20;0.10;;;17.80;54.50;;;;;;6093579;23;20710;-81
2023/05/17 10:36:38;;;;;;;0.13;0.10;;;17.70;53.90;;;;;;6092617;23;20703;-83
2023/05/17 10:39:09;;;;;;;0.50;0.20;;;17.60;55.20;;;;;;6093815;23;20677;-83
2023/05/17 10:41:42;;;;;;;0.90;0.10;;;17.50;55.10;;;;;;6092546;23;20373;-82
2023/05/17 10:44:13;;;;;;;0.13;0.10;;;17.50;56.10;;;;;;6093301;23;20374;-82
2023/05/17 10:46:40;;;;;;;1.00;0.30;;;17.50;56.20;;;;;;6092599;23;20373;-82
2023/05/17 10:49:07;;;;;;;1.00;0.30;;;17.40;56.50;;;;;;6093442;23;20373;-83
2023/05/17 10:51:37;;;;;;;0.63;0.30;;;17.40;56.40;;;;;;6092956;23;20381;-83
2023/05/17 10:54:06;;;;;;;0.67;0.20;;;17.40;57.10;;;;;;6093978;23;20677;-82
2023/05/17 10:56:34;;;;;;;0.22;0.10;;;17.40;58.50;;;;;;6093157;23;20382;-82
2023/05/17 10:59:14;;;;;;;0.10;0.10;;;17.40;57.60;;;;;;6093322;23;20377;-82
2023/05/17 11:02:17;;;;;;;2.00;0.20;;;17.30;59.80;;;;;;6092473;23;20377;-82
2023/05/17 11:04:54;;;;;;;0.50;0.20;;;17.40;64.30;;;;;;6088408;23;20377;-82
2023/05/17 11:07:25;;;;;;;0.50;0.20;;;17.30;67.00;;;;;;6093445;23;20385;-82
2023/05/17 11:09:55;;;;;;;0.38;0.20;;;17.30;69.30;;;;;;6092284;23;20386;-82
2023/05/17 11:12:40;;;;;;;0.50;0.20;;;17.30;71.70;;;;;;6093343;23;20389;-83
2023/05/17 11:15:10;;;;;;;0.80;0.30;;;17.10;73.90;;;;;;6093901;23;20381;-82
2023/05/17 11:17:43;;;;;;;1.10;0.28;;;17.10;77.70;;;;;;6093245;23;20442;-82
2023/05/17 11:20:25;;;;;;;0.90;0.30;;;17.00;77.70;;;;;;6092903;23;20409;-82
2023/05/17 11:22:57;;;;;;;0.30;0.22;;;16.90;79.50;;;;;;6092386;23;20465;-82
2023/05/17 11:25:29;;;;;;;0.63;0.28;;;16.80;80.80;;;;;;6092955;23;20874;-82
2023/05/17 11:27:58;;;;;;;0.90;0.30;;;16.70;83.60;;;;;;6092850;23;20707;-82
2023/05/17 11:30:30;;;;;;;0.75;0.30;;;16.60;85.60;;;;;;6093240;23;20382;-82
2023/05/17 11:32:58;;;;;;;0.38;0.30;;;16.60;86.50;;;;;;6092604;23;20378;-83
2023/05/17 11:35:37;;;;;;;0.53;0.30;;;16.60;88.80;;;;;;6093369;23;20373;-82
2023/05/17 11:38:26;;;;;;;0.90;0.30;;;16.50;90.50;;;;;;6092503;23;20442;-82
2023/05/17 11:40:54;;;;;;;1.20;0.30;;;16.50;91.80;;;;;;6092339;23;20400;-81
2023/05/17 11:43:29;;;;;;;1.08;0.50;;;16.50;93.60;;;;;;6092851;23;20378;-81
2023/05/17 11:46:02;;;;;;;0.30;0.30;;;16.40;93.90;;;;;;6092319;23;20381;-80
2023/05/17 11:48:30;;;;;;;0.75;0.40;;;16.30;95.40;;;;;;6092208;23;20377;-81
2023/05/17 11:50:57;;;;;;;1.10;0.40;;;16.20;95.70;;;;;;6092124;23;20377;-80
2023/05/17 11:53:30;;;;;;;0.63;0.40;;;16.10;96.30;;;;;;6092629;23;20388;-80
2023/05/17 11:56:03;;;;;;;0.40;0.30;;;16.00;96.70;;;;;;6092314;23;20381;-81
2023/05/17 11:58:30;;;;;;;0.50;0.30;;;15.80;97.80;;;;;;6092407;23;20914;-79
2023/05/17 12:00:57;;;;;;;0.73;0.30;;;15.80;99.00;;;;;;6092317;23;20378;-80
2023/05/17 12:03:29;;;;;;;0.70;0.40;;;15.60;98.80;;;;;;6092386;23;20756;-82
2023/05/17 12:06:16;;;;;;;1.08;0.60;;;15.60;99.90;;;;;;6115884;23;20377;-80
2023/05/17 12:08:45;;;;;;;0.63;0.40;;;15.50;99.90;;;;;;6092491;23;20384;-80
2023/05/17 12:11:15;;;;;;;0.47;0.40;;;15.50;99.90;;;;;;6091747;23;20447;-79
2023/05/17 12:13:45;;;;;;;0.50;0.40;;;15.40;99.90;;;;;;6092103;23;20385;-80
2023/05/17 12:16:14;;;;;;;1.30;0.30;;;15.40;99.90;;;;;;6091846;23;20377;-79
2023/05/17 12:18:48;;;;;;;0.70;0.40;;;15.40;99.90;;;;;;6092181;23;20378;-79
2023/05/17 12:21:17;;;;;;;0.80;0.30;;;15.30;99.90;;;;;;6091861;23;20405;-80
2023/05/17 12:23:45;;;;;;;1.00;0.32;;;15.30;99.90;;;;;;6092015;23;20843;-79
2023/05/17 12:26:17;;;;;;;0.40;0.30;;;15.20;99.90;;;;;;6092916;23;20373;-79
2023/05/17 12:28:52;;;;;;;1.30;0.60;;;15.20;99.90;;;;;;6092031;23;20503;-79
2023/05/17 12:31:23;;;;;;;1.40;0.40;;;15.20;99.90;;;;;;6091653;23;20973;-80
2023/05/17 12:33:50;;;;;;;0.80;0.30;;;15.20;99.90;;;;;;6092536;23;20400;-80
2023/05/17 12:36:18;;;;;;;1.05;0.50;;;15.10;99.90;;;;;;6091336;23;20384;-80
2023/05/17 12:38:46;;;;;;;0.70;0.30;;;15.10;99.90;;;;;;6092505;23;20523;-80
2023/05/17 12:41:14;;;;;;;12.90;5.18;;;15.10;99.90;;;;;;6091857;23;20685;-80
2023/05/17 12:43:44;;;;;;;5.93;2.17;;;15.10;99.90;;;;;;6092271;23;20373;-80
2023/05/17 12:46:19;;;;;;;68.53;31.67;;;15.00;99.90;;;;;;6091451;23;20460;-80
2023/05/17 12:48:48;;;;;;;23.27;13.80;;;15.00;99.90;;;;;;6093290;23;20875;-81
2023/05/17 12:51:20;;;;;;;8.75;6.93;;;14.90;99.90;;;;;;6090971;23;20393;-81
2023/05/17 12:53:52;;;;;;;5.32;4.82;;;14.80;99.90;;;;;;6092064;23;20716;-80
2023/05/17 12:56:28;;;;;;;3.22;1.95;;;14.60;99.90;;;;;;6091231;23;20380;-80